Time;durP1;ratioP1;P1;durP2;ratioP2;P2;SDS_P1;SDS_P2;PMS_P1;PMS_P2;Temp;Humidity;BMP_temperature;BMP_pressure;BME280_temperature;BME280_humidity;BME280_pressure;Samples;Min_cycle;Max_cycle;Signal;HPM_P1;HPM_P2
2022/08/05 00:00:19;;;;;;;;;;;;;;;18.36;77.50;95349.16;5074145;28;966;-49
2022/08/05 00:02:45;;;;;;;;;;;;;;;18.37;76.69;95350.00;5074025;28;1075;-49
2022/08/05 00:05:11;;;;;;;;;;;;;;;18.43;77.17;95351.91;5074225;28;974;-49
2022/08/05 00:07:37;;;;;;;;;;;;;;;18.47;76.55;95345.84;5074086;28;1214;-49
2022/08/05 00:10:03;;;;;;;;;;;;;;;18.25;77.58;95342.50;5074023;28;1902;-49
2022/08/05 00:12:29;;;;;;;;;;;;;;;18.30;77.24;95344.56;5073831;28;1412;-48
2022/08/05 00:14:55;;;;;;;;;;;;;;;18.13;77.50;95344.94;5074203;28;973;-49
2022/08/05 00:17:21;;;;;;;;;;;;;;;18.17;77.83;95339.94;5074120;28;1049;-49
2022/08/05 00:19:47;;;;;;;;;;;;;;;18.03;77.57;95336.38;5073596;28;1013;-49
2022/08/05 00:22:13;;;;;;;;;;;;;;;18.04;78.00;95340.75;5073760;28;1092;-49
2022/08/05 00:24:39;;;;;;;;;;;;;;;18.08;77.72;95346.56;5073720;28;1040;-49
2022/08/05 00:27:06;;;;;;;;;;;;;;;17.95;78.42;95341.97;5073345;28;1009;-49
2022/08/05 00:29:32;;;;;;;;;;;;;;;17.98;77.85;95346.97;5073048;28;1080;-49
2022/08/05 00:31:58;;;;;;;;;;;;;;;17.96;78.52;95346.34;5073868;28;1910;-49
2022/08/05 00:34:24;;;;;;;;;;;;;;;18.04;78.12;95334.50;5073579;28;1077;-49
2022/08/05 00:36:50;;;;;;;;;;;;;;;17.91;78.75;95338.00;5073761;28;1018;-49
2022/08/05 00:39:16;;;;;;;;;;;;;;;17.76;78.77;95344.34;5073311;28;998;-49
2022/08/05 00:41:44;;;;;;;;;;;;;;;17.76;79.42;95346.22;5073578;28;1021;-49
2022/08/05 00:44:10;;;;;;;;;;;;;;;17.86;78.55;95344.00;5085556;28;1151;-49
2022/08/05 00:46:36;;;;;;;;;;;;;;;17.62;78.85;95339.06;5093942;28;1037;-49
2022/08/05 00:49:02;;;;;;;;;;;;;;;17.44;79.73;95343.16;5093458;28;1181;-49
2022/08/05 00:51:29;;;;;;;;;;;;;;;17.53;79.77;95339.25;5093714;28;1917;-49
2022/08/05 00:53:55;;;;;;;;;;;;;;;17.59;79.89;95339.50;5093602;28;1000;-49
2022/08/05 00:56:21;;;;;;;;;;;;;;;17.61;80.20;95346.38;5093569;28;1048;-49
2022/08/05 00:58:47;;;;;;;;;;;;;;;17.67;79.42;95334.75;5093276;28;1266;-49
2022/08/05 01:01:14;;;;;;;;;;;;;;;17.70;79.48;95345.16;5093560;28;1031;-49
2022/08/05 01:03:40;;;;;;;;;;;;;;;17.67;79.02;95342.84;5093557;28;968;-49
2022/08/05 01:06:06;;;;;;;;;;;;;;;17.58;79.44;95346.75;5093581;28;1032;-49
2022/08/05 01:08:33;;;;;;;;;;;;;;;17.53;79.13;95346.53;5093394;28;996;-49
2022/08/05 01:11:01;;;;;;;;;;;;;;;17.40;79.85;95343.75;5093373;28;1907;-49
2022/08/05 01:13:42;;;;;;;;;;;;;;;17.40;79.54;95338.34;5093220;28;962;-49
2022/08/05 01:16:13;;;;;;;;;;;;;;;17.44;79.78;95345.03;5093334;28;1084;-49
2022/08/05 01:18:44;;;;;;;;;;;;;;;17.43;79.35;95348.75;5093369;28;1027;-49
2022/08/05 01:21:13;;;;;;;;;;;;;;;17.33;79.66;95349.09;5093415;28;1075;-49
2022/08/05 01:23:58;;;;;;;;;;;;;;;17.33;79.69;95349.09;5093139;28;1025;-49
2022/08/05 01:26:42;;;;;;;;;;;;;;;17.21;80.28;95351.53;5093427;28;1043;-49
2022/08/05 01:29:12;;;;;;;;;;;;;;;17.18;80.28;95341.09;5093164;28;1084;-49
2022/08/05 01:31:41;;;;;;;;;;;;;;;17.06;80.49;95338.13;5093207;28;1993;-49
2022/08/05 01:34:11;;;;;;;;;;;;;;;16.89;81.09;95351.09;5092960;28;1251;-49
2022/08/05 01:36:40;;;;;;;;;;;;;;;16.93;80.67;95349.66;5093468;28;1024;-49
2022/08/05 01:39:06;;;;;;;;;;;;;;;16.78;81.93;95347.00;5093680;28;1100;-48
2022/08/05 01:41:34;;;;;;;;;;;;;;;16.81;81.84;95342.25;5097235;28;1959;-49
2022/08/05 01:44:01;;;;;;;;;;;;;;;16.92;81.15;95350.69;5086129;28;1158;-49
2022/08/05 01:46:28;;;;;;;;;;;;;;;16.89;81.61;95348.38;5076875;28;1000;-49
2022/08/05 01:48:55;;;;;;;;;;;;;;;17.04;80.65;95348.28;5076622;28;1037;-49
2022/08/05 01:51:22;;;;;;;;;;;;;;;17.16;80.46;95346.69;5076544;28;1994;-49
2022/08/05 01:53:49;;;;;;;;;;;;;;;17.14;80.33;95354.16;5076878;28;1017;-48
2022/08/05 01:56:16;;;;;;;;;;;;;;;17.12;80.54;95353.53;5076638;28;1021;-49
2022/08/05 01:58:43;;;;;;;;;;;;;;;17.18;79.44;95346.50;5076515;28;1191;-49
2022/08/05 02:01:10;;;;;;;;;;;;;;;17.19;79.64;95345.50;5076338;28;1039;-49
2022/08/05 02:03:39;;;;;;;;;;;;;;;17.10;79.91;95343.97;5076448;28;1068;-49
2022/08/05 02:06:06;;;;;;;;;;;;;;;17.05;80.49;95349.13;5076477;28;1008;-49
2022/08/05 02:08:33;;;;;;;;;;;;;;;17.01;80.50;95350.56;5076606;28;969;-49
2022/08/05 02:11:17;;;;;;;;;;;;;;;16.95;80.49;95346.75;5076287;28;1957;-49
2022/08/05 02:13:51;;;;;;;;;;;;;;;16.89;80.68;95345.69;5076447;28;1009;-48
2022/08/05 02:16:20;;;;;;;;;;;;;;;16.88;80.86;95346.69;5076077;28;1870;-49
2022/08/05 02:18:52;;;;;;;;;;;;;;;16.85;81.06;95346.28;5076451;28;988;-49
2022/08/05 02:21:20;;;;;;;;;;;;;;;16.70;81.13;95349.84;5076047;28;1048;-49
2022/08/05 02:23:49;;;;;;;;;;;;;;;16.67;81.18;95344.84;5076268;28;990;-49
2022/08/05 02:26:18;;;;;;;;;;;;;;;16.57;81.94;95349.72;5075866;28;1088;-49
2022/08/05 02:28:45;;;;;;;;;;;;;;;16.66;81.56;95345.88;5076025;28;1100;-49
2022/08/05 02:31:16;;;;;;;;;;;;;;;16.71;80.99;95342.59;5075921;28;1989;-49
2022/08/05 02:33:47;;;;;;;;;;;;;;;16.49;81.26;95342.59;5076240;28;933;-49
2022/08/05 02:36:15;;;;;;;;;;;;;;;16.47;81.27;95343.84;5075696;28;1025;-49
2022/08/05 02:38:44;;;;;;;;;;;;;;;16.48;81.50;95342.78;5075959;28;1065;-49
2022/08/05 02:41:10;;;;;;;;;;;;;;;16.42;81.97;95341.69;5075508;28;1020;-49
2022/08/05 02:43:38;;;;;;;;;;;;;;;16.34;82.05;95344.53;5083654;28;1150;-49
2022/08/05 02:46:04;;;;;;;;;;;;;;;16.42;81.87;95339.00;5095921;28;976;-49
2022/08/05 02:48:31;;;;;;;;;;;;;;;16.57;81.32;95345.16;5096124;28;1029;-49
2022/08/05 02:50:58;;;;;;;;;;;;;;;16.47;81.71;95343.84;5094690;28;1985;-49
2022/08/05 02:53:25;;;;;;;;;;;;;;;16.37;82.30;95345.00;5095861;28;962;-49
2022/08/05 02:55:52;;;;;;;;;;;;;;;16.23;82.83;95350.44;5095627;28;957;-49
2022/08/05 02:58:20;;;;;;;;;;;;;;;16.39;82.06;95342.09;5095658;28;1266;-48
2022/08/05 03:00:46;;;;;;;;;;;;;;;16.49;81.87;95345.31;5095571;28;1087;-49
2022/08/05 03:03:17;;;;;;;;;;;;;;;16.47;81.69;95344.66;5095585;28;1028;-49
2022/08/05 03:05:44;;;;;;;;;;;;;;;16.46;81.73;95347.56;5095568;28;1044;-49
2022/08/05 03:08:11;;;;;;;;;;;;;;;16.36;82.45;95348.69;5095488;28;1032;-49
2022/08/05 03:10:37;;;;;;;;;;;;;;;16.45;81.77;95340.47;5095551;28;1910;-49
2022/08/05 03:13:10;;;;;;;;;;;;;;;16.39;81.94;95342.09;5095647;28;1025;-49
2022/08/05 03:15:36;;;;;;;;;;;;;;;16.19;82.74;95339.19;5095459;28;1022;-49
2022/08/05 03:18:02;;;;;;;;;;;;;;;16.03;83.22;95339.41;5095509;28;948;-49
2022/08/05 03:20:28;;;;;;;;;;;;;;;16.06;83.43;95344.44;5095168;28;1112;-49
2022/08/05 03:22:54;;;;;;;;;;;;;;;16.18;82.43;95348.28;5095258;28;991;-49
2022/08/05 03:25:21;;;;;;;;;;;;;;;16.17;82.36;95355.56;5095331;28;1020;-49
2022/08/05 03:27:47;;;;;;;;;;;;;;;16.21;82.46;95350.63;5095346;28;1041;-48
2022/08/05 03:30:13;;;;;;;;;;;;;;;16.30;81.45;95354.88;5095154;28;1919;-49
2022/08/05 03:32:39;;;;;;;;;;;;;;;16.18;82.27;95351.00;5095118;28;1008;-49
2022/08/05 03:35:06;;;;;;;;;;;;;;;16.20;82.15;95349.78;5095047;28;1106;-49
2022/08/05 03:37:32;;;;;;;;;;;;;;;16.10;82.05;95354.66;5076809;28;972;-49
2022/08/05 03:39:58;;;;;;;;;;;;;;;16.03;82.58;95347.50;5095091;28;985;-49
2022/08/05 03:42:25;;;;;;;;;;;;;;;16.16;82.37;95348.50;5094743;28;1061;-49
2022/08/05 03:44:51;;;;;;;;;;;;;;;16.17;82.04;95354.72;5076799;28;1150;-49
2022/08/05 03:47:17;;;;;;;;;;;;;;;16.10;82.67;95348.41;5074440;28;1022;-49
2022/08/05 03:49:43;;;;;;;;;;;;;;;16.16;82.51;95347.66;5074520;28;1037;-49
2022/08/05 03:52:11;;;;;;;;;;;;;;;16.21;82.56;95350.63;5074046;28;1902;-49
2022/08/05 03:54:57;;;;;;;;;;;;;;;16.24;82.63;95346.69;5074678;28;957;-49
2022/08/05 03:57:25;;;;;;;;;;;;;;;16.33;82.75;95353.63;5074061;28;1112;-49
2022/08/05 04:00:00;;;;;;;;;;;;;;;16.46;82.47;95353.78;5074433;28;961;-48
2022/08/05 04:02:28;;;;;;;;;;;;;;;16.59;82.01;95347.69;5073843;28;981;-48
2022/08/05 04:04:56;;;;;;;;;;;;;;;16.62;81.98;95350.00;5074148;28;1025;-49
2022/08/05 04:07:22;;;;;;;;;;;;;;;16.69;81.33;95350.03;5073985;28;1123;-48
2022/08/05 04:09:48;;;;;;;;;;;;;;;16.79;81.46;95353.25;5074151;28;1080;-49
2022/08/05 04:12:14;;;;;;;;;;;;;;;16.96;81.45;95354.69;5073857;28;1918;-49
2022/08/05 04:14:41;;;;;;;;;;;;;;;16.93;81.16;95359.63;5074131;28;970;-49
2022/08/05 04:17:07;;;;;;;;;;;;;;;16.93;81.10;95360.47;5073668;28;1168;-49
2022/08/05 04:19:40;;;;;;;;;;;;;;;17.07;81.30;95360.56;5074224;28;965;-48
2022/08/05 04:22:06;;;;;;;;;;;;;;;17.24;80.63;95351.13;5056178;28;1147;-48
2022/08/05 04:24:32;;;;;;;;;;;;;;;17.41;81.67;95356.22;5073839;28;1104;-49
2022/08/05 04:26:58;;;;;;;;;;;;;;;17.30;80.87;95363.88;5073806;28;1045;-49
2022/08/05 04:29:25;;;;;;;;;;;;;;;17.30;81.76;95363.00;5073759;28;959;-49
2022/08/05 04:31:51;;;;;;;;;;;;;;;17.56;80.74;95359.63;5073485;28;1911;-49
2022/08/05 04:34:17;;;;;;;;;;;;;;;17.79;80.76;95351.22;5073842;28;1023;-49
2022/08/05 04:36:43;;;;;;;;;;;;;;;17.94;79.72;95357.34;5073692;28;997;-49
2022/08/05 04:39:09;;;;;;;;;;;;;;;18.20;79.14;95352.25;5073715;28;1029;-49
2022/08/05 04:41:35;;;;;;;;;;;;;;;18.41;79.00;95357.50;5073496;28;1049;-49
2022/08/05 04:44:01;;;;;;;;;;;;;;;18.43;79.07;95368.97;5084601;28;1269;-49
2022/08/05 04:46:26;;;;;;;;;;;;;;;18.47;78.98;95362.09;5093529;28;959;-49
2022/08/05 04:48:52;;;;;;;;;;;;;;;18.64;78.37;95361.72;5093802;28;1052;-49
2022/08/05 04:51:18;;;;;;;;;;;;;;;18.86;77.69;95365.94;5093607;28;1922;-48
2022/08/05 04:53:44;;;;;;;;;;;;;;;19.11;75.38;95363.44;5093527;28;1099;-49
2022/08/05 04:56:10;;;;;;;;;;;;;;;19.35;74.55;95369.28;5093623;28;1020;-48
2022/08/05 04:58:36;;;;;;;;;;;;;;;19.58;71.42;95363.38;5093341;28;1227;-49
2022/08/05 05:01:02;;;;;;;;;;;;;;;19.58;73.00;95357.97;5093421;28;1891;-49
2022/08/05 05:03:28;;;;;;;;;;;;;;;19.65;72.96;95363.34;5093421;28;1005;-49
2022/08/05 05:05:54;;;;;;;;;;;;;;;19.79;72.32;95359.59;5093729;28;1041;-49
2022/08/05 05:08:20;;;;;;;;;;;;;;;19.79;71.54;95359.59;5093422;28;1057;-49
2022/08/05 05:10:46;;;;;;;;;;;;;;;19.82;71.31;95359.16;5093546;28;1914;-49
2022/08/05 05:13:13;;;;;;;;;;;;;;;19.92;71.01;95357.88;5093163;28;1028;-49
2022/08/05 05:15:40;;;;;;;;;;;;;;;20.06;70.60;95354.91;5093021;28;1000;-48
2022/08/05 05:18:07;;;;;;;;;;;;;;;20.12;68.77;95355.09;5093348;28;1001;-48
2022/08/05 05:20:34;;;;;;;;;;;;;;;20.26;69.61;95356.69;5093471;28;1866;-48
2022/08/05 05:23:00;;;;;;;;;;;;;;;20.34;68.08;95351.03;5093323;28;1164;-48
2022/08/05 05:25:27;;;;;;;;;;;;;;;20.51;69.41;95353.19;5093541;28;957;-48
2022/08/05 05:27:54;;;;;;;;;;;;;;;20.64;69.29;95351.28;5093191;28;1080;-48
2022/08/05 05:30:20;;;;;;;;;;;;;;;20.70;69.17;95355.00;5093052;28;2007;-48
2022/08/05 05:32:47;;;;;;;;;;;;;;;20.75;68.01;95354.34;5093308;28;1048;-49
2022/08/05 05:35:13;;;;;;;;;;;;;;;20.99;68.11;95353.53;5093122;28;1096;-48
2022/08/05 05:37:45;;;;;;;;;;;;;;;21.35;65.18;95353.88;5093221;28;970;-49
2022/08/05 05:40:13;;;;;;;;;;;;;;;21.76;65.02;95352.41;5093230;28;972;-49
2022/08/05 05:42:39;;;;;;;;;;;;;;;21.89;63.50;95355.00;5092828;28;1061;-49
2022/08/05 05:45:05;;;;;;;;;;;;;;;21.94;64.84;95352.44;5073044;28;1178;-49
2022/08/05 05:47:33;;;;;;;;;;;;;;;21.95;64.75;95358.69;5072978;28;1049;-49
2022/08/05 05:49:59;;;;;;;;;;;;;;;22.03;63.99;95355.69;5073094;28;1239;-48
2022/08/05 05:52:25;;;;;;;;;;;;;;;22.07;64.00;95365.06;5072853;28;1981;-49
2022/08/05 05:54:51;;;;;;;;;;;;;;;22.10;64.41;95359.16;5072685;28;1021;-48
2022/08/05 05:57:18;;;;;;;;;;;;;;;22.24;64.23;95365.28;5072598;28;1113;-49
2022/08/05 05:59:43;;;;;;;;;;;;;;;22.27;64.25;95366.72;5072622;28;1049;-48
2022/08/05 06:02:09;;;;;;;;;;;;;;;22.15;62.27;95363.91;5072957;28;1068;-48
2022/08/05 06:04:35;;;;;;;;;;;;;;;22.27;65.12;95364.84;5072606;28;1830;-48
2022/08/05 06:07:01;;;;;;;;;;;;;;;22.30;65.78;95364.38;5072725;28;1010;-49
2022/08/05 06:09:27;;;;;;;;;;;;;;;22.23;65.00;95363.59;5073012;28;1021;-49
2022/08/05 06:11:53;;;;;;;;;;;;;;;22.39;65.32;95368.44;5072634;28;1993;-48
2022/08/05 06:14:19;;;;;;;;;;;;;;;22.52;63.69;95353.81;5072297;28;1064;-48
2022/08/05 06:16:45;;;;;;;;;;;;;;;22.71;63.67;95351.88;5072862;28;1131;-49
2022/08/05 06:19:11;;;;;;;;;;;;;;;22.85;62.51;95354.41;5072583;28;1349;-49
2022/08/05 06:21:37;;;;;;;;;;;;;;;23.00;62.92;95358.34;5072741;28;1004;-49
2022/08/05 06:24:05;;;;;;;;;;;;;;;22.84;63.00;95358.19;5072437;28;1033;-52
2022/08/05 06:26:31;;;;;;;;;;;;;;;22.95;64.30;95358.19;5073934;28;1044;-49
2022/08/05 06:28:57;;;;;;;;;;;;;;;23.05;63.41;95354.09;5075874;28;1016;-49
2022/08/05 06:31:23;;;;;;;;;;;;;;;23.18;62.33;95351.16;5076428;28;1910;-49
2022/08/05 06:33:49;;;;;;;;;;;;;;;23.28;62.65;95353.34;5076055;28;1034;-48
2022/08/05 06:36:15;;;;;;;;;;;;;;;23.47;60.92;95346.69;5076147;28;966;-49
2022/08/05 06:38:41;;;;;;;;;;;;;;;23.53;61.04;95345.72;5075837;28;1008;-49
2022/08/05 06:41:07;;;;;;;;;;;;;;;23.71;61.68;95341.22;5075786;28;1148;-49
2022/08/05 06:43:33;;;;;;;;;;;;;;;23.89;62.16;95343.00;5082646;28;1209;-49
2022/08/05 06:45:59;;;;;;;;;;;;;;;24.19;59.82;95348.28;5096314;28;1019;-49
2022/08/05 06:48:25;;;;;;;;;;;;;;;24.29;59.88;95345.75;5096032;28;1016;-49
2022/08/05 06:50:51;;;;;;;;;;;;;;;24.45;59.53;95337.84;5095893;28;1990;-49
2022/08/05 06:53:17;;;;;;;;;;;;;;;24.50;57.61;95343.44;5095968;28;1041;-49
2022/08/05 06:55:43;;;;;;;;;;;;;;;24.56;58.50;95337.00;5096108;28;1017;-49
2022/08/05 06:58:09;;;;;;;;;;;;;;;24.73;59.31;95339.78;5094903;28;1092;-49
2022/08/05 07:00:35;;;;;;;;;;;;;;;25.01;57.79;95336.19;5095620;28;1016;-49
2022/08/05 07:03:01;;;;;;;;;;;;;;;25.20;57.82;95335.94;5095961;28;1025;-50
2022/08/05 07:05:27;;;;;;;;;;;;;;;25.35;57.58;95340.88;5095735;28;960;-49
2022/08/05 07:07:53;;;;;;;;;;;;;;;25.60;57.25;95340.44;5095826;28;1051;-49
2022/08/05 07:10:19;;;;;;;;;;;;;;;25.64;55.75;95336.94;5095341;28;1984;-50
2022/08/05 07:18:14;;;;;;;;;;;;;;;26.09;55.90;95335.13;5095552;28;996;-49
2022/08/05 07:20:40;;;;;;;;;;;;;;;26.03;55.95;95336.16;5095233;28;1096;-49
2022/08/05 07:23:06;;;;;;;;;;;;;;;26.08;55.45;95327.97;5095266;28;1125;-49
2022/08/05 07:25:32;;;;;;;;;;;;;;;26.33;55.51;95335.66;5095006;28;1028;-49
2022/08/05 07:27:58;;;;;;;;;;;;;;;26.29;55.01;95337.28;5095198;28;1009;-49
2022/08/05 07:30:24;;;;;;;;;;;;;;;26.17;53.17;95333.84;5095059;28;1914;-49
2022/08/05 07:32:50;;;;;;;;;;;;;;;26.14;56.10;95337.09;5095460;28;956;-49
2022/08/05 07:35:16;;;;;;;;;;;;;;;25.98;52.77;95334.16;5094914;28;978;-50
2022/08/05 07:37:42;;;;;;;;;;;;;;;25.94;54.26;95329.44;5094663;28;1010;-49
2022/08/05 07:40:08;;;;;;;;;;;;;;;26.13;55.22;95332.69;5094909;28;1009;-49
2022/08/05 07:42:34;;;;;;;;;;;;;;;26.21;53.85;95335.81;5095217;28;1045;-49
2022/08/05 07:45:00;;;;;;;;;;;;;;;26.39;55.56;95331.94;5075767;28;1225;-50
2022/08/05 07:47:26;;;;;;;;;;;;;;;26.39;54.13;95329.19;5074682;28;1056;-49
2022/08/05 07:49:52;;;;;;;;;;;;;;;26.45;54.56;95321.84;5074474;28;962;-48
2022/08/05 07:52:19;;;;;;;;;;;;;;;26.71;55.16;95319.41;5074356;28;1902;-48
2022/08/05 07:54:45;;;;;;;;;;;;;;;26.81;54.08;95323.06;5074188;28;969;-50
2022/08/05 07:57:11;;;;;;;;;;;;;;;26.88;52.88;95317.38;5074161;28;1855;-49
2022/08/05 07:59:37;;;;;;;;;;;;;;;26.98;53.32;95322.97;5074380;28;1029;-48
2022/08/05 08:02:03;;;;;;;;;;;;;;;27.04;51.57;95316.44;5074060;28;1030;-49
2022/08/05 08:04:29;;;;;;;;;;;;;;;27.10;51.40;95313.72;5074254;28;1080;-49
2022/08/05 08:06:55;;;;;;;;;;;;;;;27.24;52.31;95312.19;5073984;28;1008;-49
2022/08/05 08:09:23;;;;;;;;;;;;;;;27.22;51.64;95317.13;5074039;28;979;-49
2022/08/05 08:11:49;;;;;;;;;;;;;;;27.11;50.32;95307.13;5073897;28;1910;-49
2022/08/05 08:14:14;;;;;;;;;;;;;;;27.34;51.40;95315.06;5074179;28;982;-50
2022/08/05 08:16:40;;;;;;;;;;;;;;;27.44;50.94;95312.38;5073790;28;1029;-49
2022/08/05 08:19:07;;;;;;;;;;;;;;;27.69;49.48;95310.06;5073869;28;1215;-49
2022/08/05 08:21:33;;;;;;;;;;;;;;;27.70;49.57;95307.06;5073703;28;1092;-50
2022/08/05 08:23:59;;;;;;;;;;;;;;;27.55;49.82;95307.78;5073838;28;925;-49
2022/08/05 08:26:25;;;;;;;;;;;;;;;27.65;49.93;95307.03;5073617;28;1088;-49
2022/08/05 08:28:51;;;;;;;;;;;;;;;27.80;50.71;95304.38;5073800;28;935;-49
2022/08/05 08:31:17;;;;;;;;;;;;;;;27.97;49.61;95301.47;5073539;28;1910;-50
2022/08/05 08:33:43;;;;;;;;;;;;;;;28.07;47.97;95305.38;5073851;28;1020;-49
2022/08/05 08:36:09;;;;;;;;;;;;;;;28.14;48.86;95295.78;5073571;28;1028;-49
2022/08/05 08:38:35;;;;;;;;;;;;;;;28.17;49.71;95291.66;5073644;28;1019;-50
2022/08/05 08:41:07;;;;;;;;;;;;;;;28.31;49.52;95294.75;5073694;28;1026;-49
2022/08/05 08:43:34;;;;;;;;;;;;;;;28.44;49.14;95294.25;5080734;28;1205;-50
2022/08/05 08:46:02;;;;;;;;;;;;;;;28.50;47.95;95295.91;5093644;28;994;-49
2022/08/05 08:48:29;;;;;;;;;;;;;;;28.57;48.53;95293.75;5093320;28;1025;-49
2022/08/05 08:50:56;;;;;;;;;;;;;;;28.70;49.37;95291.56;5093405;28;1902;-49
2022/08/05 08:53:23;;;;;;;;;;;;;;;28.77;48.08;95286.63;5093510;28;1017;-49
2022/08/05 08:55:49;;;;;;;;;;;;;;;28.87;48.18;95291.31;5093731;28;1039;-49
2022/08/05 08:58:16;;;;;;;;;;;;;;;28.95;46.08;95283.38;5093386;28;1194;-49
2022/08/05 09:00:42;;;;;;;;;;;;;;;29.05;46.64;95284.47;5093614;28;942;-49
2022/08/05 09:03:10;;;;;;;;;;;;;;;29.21;47.46;95283.38;5093544;28;996;-49
2022/08/05 09:05:36;;;;;;;;;;;;;;;29.36;46.79;95286.13;5093350;28;1045;-50
2022/08/05 09:08:02;;;;;;;;;;;;;;;29.41;45.07;95282.56;5093505;28;1084;-50
2022/08/05 09:10:29;;;;;;;;;;;;;;;29.50;46.95;95282.81;5093666;28;1967;-49
2022/08/05 09:12:55;;;;;;;;;;;;;;;29.53;43.81;95280.31;5093441;28;1037;-49
2022/08/05 09:15:22;;;;;;;;;;;;;;;29.50;43.51;95280.03;5093468;28;1038;-50
2022/08/05 09:17:49;;;;;;;;;;;;;;;29.44;44.33;95272.91;5093194;28;1937;-49
2022/08/05 09:20:15;;;;;;;;;;;;;;;29.50;44.14;95269.03;5093303;28;1017;-50
2022/08/05 09:22:59;;;;;;;;;;;;;;;29.63;43.76;95271.22;5093153;28;966;-49
2022/08/05 09:25:25;;;;;;;;;;;;;;;29.66;41.96;95267.91;5093430;28;961;-50
2022/08/05 09:27:51;;;;;;;;;;;;;;;29.68;42.32;95262.13;5093266;28;1033;-50
2022/08/05 09:30:17;;;;;;;;;;;;;;;29.77;41.34;95266.81;5093276;28;954;-49
2022/08/05 09:32:43;;;;;;;;;;;;;;;29.76;41.39;95262.38;5092969;28;1938;-50
2022/08/05 09:35:14;;;;;;;;;;;;;;;29.77;40.48;95258.53;5093411;28;969;-50
2022/08/05 09:37:50;;;;;;;;;;;;;;;29.85;40.19;95264.59;5093322;28;1011;-49
2022/08/05 09:40:38;;;;;;;;;;;;;;;29.95;39.84;95259.84;5093094;28;1076;-50
2022/08/05 09:43:05;;;;;;;;;;;;;;;29.92;38.32;95257.66;5089894;28;1209;-50
2022/08/05 09:45:35;;;;;;;;;;;;;;;29.91;40.56;95249.69;5072902;28;958;-49
2022/08/05 09:48:24;;;;;;;;;;;;;;;30.00;41.67;95255.44;5073044;28;970;-49
2022/08/05 09:50:50;;;;;;;;;;;;;;;29.98;37.62;95241.94;5073241;28;1914;-49
2022/08/05 09:53:17;;;;;;;;;;;;;;;30.03;38.08;95241.06;5072736;28;1009;-50
2022/08/05 09:55:43;;;;;;;;;;;;;;;30.07;38.17;95243.00;5072889;28;1016;-49
2022/08/05 09:58:13;;;;;;;;;;;;;;;30.07;39.48;95247.69;5072361;28;1247;-49
2022/08/05 10:00:50;;;;;;;;;;;;;;;30.04;37.22;95240.81;5074641;28;1172;-49
2022/08/05 10:03:16;;;;;;;;;;;;;;;30.12;37.17;95228.38;5076550;28;992;-49
2022/08/05 10:05:43;;;;;;;;;;;;;;;30.14;37.81;95229.72;5076661;28;1038;-50
2022/08/05 10:08:09;;;;;;;;;;;;;;;30.17;38.39;95233.88;5076232;28;1060;-50
2022/08/05 10:10:36;;;;;;;;;;;;;;;30.22;39.07;95224.72;5076364;28;1988;-50
2022/08/05 10:13:03;;;;;;;;;;;;;;;30.20;37.50;95225.00;5076190;28;1089;-49
2022/08/05 10:15:37;;;;;;;;;;;;;;;30.17;38.73;95226.41;5076356;28;1085;-49
2022/08/05 10:18:08;;;;;;;;;;;;;;;30.10;37.95;95227.81;5076518;28;1144;-49
2022/08/05 10:20:40;;;;;;;;;;;;;;;30.19;36.64;95222.56;5076299;28;1020;-49
2022/08/05 10:23:12;;;;;;;;;;;;;;;30.36;37.96;95217.53;5076037;28;1048;-49
2022/08/05 10:25:38;;;;;;;;;;;;;;;30.51;36.46;95214.66;5076472;28;1045;-49
2022/08/05 10:28:05;;;;;;;;;;;;;;;30.55;36.38;95209.41;5076025;28;1052;-49
2022/08/05 10:30:31;;;;;;;;;;;;;;;30.63;35.50;95203.25;5076177;28;1906;-49
2022/08/05 10:33:00;;;;;;;;;;;;;;;30.64;36.73;95206.84;5075997;28;1045;-50
2022/08/05 10:35:26;;;;;;;;;;;;;;;30.68;37.17;95208.75;5076002;28;1000;-49
2022/08/05 10:37:52;;;;;;;;;;;;;;;30.75;36.05;95209.25;5075811;28;973;-49
2022/08/05 10:40:23;;;;;;;;;;;;;;;30.75;37.15;95198.22;5076014;28;1001;-50
2022/08/05 10:42:51;;;;;;;;;;;;;;;30.76;38.70;95196.28;5076358;28;1206;-49
2022/08/05 10:45:24;;;;;;;;;;;;;;;30.72;37.84;95200.72;5095996;28;1981;-50
2022/08/05 10:47:50;;;;;;;;;;;;;;;30.56;36.95;95194.47;5095972;28;1020;-50
2022/08/05 10:50:17;;;;;;;;;;;;;;;30.43;37.52;95195.13;5095823;28;961;-50
2022/08/05 10:52:52;;;;;;;;;;;;;;;30.42;36.95;95191.56;5096029;28;1909;-50
2022/08/05 10:55:18;;;;;;;;;;;;;;;30.41;35.92;95192.69;5095990;28;1200;-49
2022/08/05 10:57:45;;;;;;;;;;;;;;;30.39;35.68;95186.59;5095549;28;1219;-50
2022/08/05 11:00:15;;;;;;;;;;;;;;;30.48;37.87;95175.78;5095728;28;1020;-50
2022/08/05 11:03:00;;;;;;;;;;;;;;;30.63;37.77;95186.72;5095679;28;1033;-49
2022/08/05 11:05:26;;;;;;;;;;;;;;;30.65;36.72;95183.66;5095841;28;988;-50
2022/08/05 11:07:59;;;;;;;;;;;;;;;30.62;35.84;95187.00;5095682;28;969;-49
2022/08/05 11:10:26;;;;;;;;;;;;;;;30.63;36.60;95181.19;5095996;28;964;-50
2022/08/05 11:12:52;;;;;;;;;;;;;;;30.67;35.60;95190.53;5094722;28;1918;-50
2022/08/05 11:15:22;;;;;;;;;;;;;;;30.69;35.03;95180.03;5095300;28;974;-49
2022/08/05 11:18:04;;;;;;;;;;;;;;;30.66;35.58;95179.81;5095684;28;970;-50
2022/08/05 11:20:36;;;;;;;;;;;;;;;30.71;36.18;95177.00;5095586;28;1041;-50
2022/08/05 11:23:20;;;;;;;;;;;;;;;30.74;35.31;95168.97;5095426;28;974;-50
2022/08/05 11:25:59;;;;;;;;;;;;;;;30.77;35.27;95169.50;5095257;28;1028;-50
2022/08/05 11:28:25;;;;;;;;;;;;;;;30.80;34.30;95171.69;5095035;28;1092;-50
2022/08/05 11:30:54;;;;;;;;;;;;;;;30.98;33.86;95161.88;5095471;28;1910;-50
2022/08/05 11:33:26;;;;;;;;;;;;;;;31.03;34.20;95159.09;5076921;28;1177;-49
2022/08/05 11:35:53;;;;;;;;;;;;;;;31.03;33.19;95164.59;5095192;28;969;-50
2022/08/05 11:38:39;;;;;;;;;;;;;;;31.13;32.20;95167.25;5094813;28;1028;-50
2022/08/05 11:41:05;;;;;;;;;;;;;;;31.13;31.04;95165.34;5094923;28;1917;-50
2022/08/05 11:43:33;;;;;;;;;;;;;;;31.12;32.44;95155.41;5087913;28;1881;-50
2022/08/05 11:46:00;;;;;;;;;;;;;;;31.10;34.31;95148.53;5074807;28;1028;-49
2022/08/05 11:48:27;;;;;;;;;;;;;;;31.01;32.93;95158.56;5074694;28;1249;-49
2022/08/05 11:50:53;;;;;;;;;;;;;;;30.98;35.28;95145.31;5074286;28;1906;-49
2022/08/05 11:53:20;;;;;;;;;;;;;;;30.97;33.64;95149.22;5074743;28;974;-49
2022/08/05 11:56:04;;;;;;;;;;;;;;;30.89;31.94;95140.41;5074455;28;1040;-49
2022/08/05 11:58:34;;;;;;;;;;;;;;;30.83;34.21;95138.81;5074336;28;1120;-50
2022/08/05 12:01:02;;;;;;;;;;;;;;;30.86;33.90;95137.41;5074276;28;1049;-49
2022/08/05 12:03:28;;;;;;;;;;;;;;;30.87;33.92;95133.53;5074316;28;966;-50
2022/08/05 12:05:57;;;;;;;;;;;;;;;30.84;32.94;95140.44;5074393;28;981;-49
2022/08/05 12:08:23;;;;;;;;;;;;;;;30.91;34.86;95137.41;5074102;28;1066;-50
2022/08/05 12:10:50;;;;;;;;;;;;;;;30.81;33.54;95137.44;5074148;28;1906;-49
2022/08/05 12:13:16;;;;;;;;;;;;;;;30.70;32.57;95136.72;5074089;28;1080;-49
2022/08/05 12:15:43;;;;;;;;;;;;;;;30.73;31.87;95141.66;5073905;28;1053;-49
2022/08/05 12:18:09;;;;;;;;;;;;;;;30.78;34.02;95133.34;5073908;28;1012;-49
2022/08/05 12:20:37;;;;;;;;;;;;;;;30.82;33.44;95137.16;5073843;28;1013;-50
2022/08/05 12:23:08;;;;;;;;;;;;;;;30.78;32.57;95136.09;5074016;28;1016;-50
2022/08/05 12:25:52;;;;;;;;;;;;;;;30.78;32.70;95132.53;5073917;28;1042;-49
2022/08/05 12:28:34;;;;;;;;;;;;;;;30.74;31.47;95138.59;5073840;28;973;-49
2022/08/05 12:31:01;;;;;;;;;;;;;;;30.80;31.75;95127.53;5073779;28;1993;-50
2022/08/05 12:33:27;;;;;;;;;;;;;;;30.90;33.53;95116.41;5073893;28;957;-49
2022/08/05 12:35:54;;;;;;;;;;;;;;;30.86;31.17;95112.56;5073724;28;961;-49
2022/08/05 12:38:21;;;;;;;;;;;;;;;30.82;30.67;95117.03;5073770;28;1043;-49
2022/08/05 12:40:47;;;;;;;;;;;;;;;30.80;29.57;95116.50;5073614;28;980;-49
2022/08/05 12:43:13;;;;;;;;;;;;;;;30.82;30.79;95105.97;5077534;28;1209;-49
2022/08/05 12:45:49;;;;;;;;;;;;;;;30.87;30.93;95101.25;5093939;28;999;-49
2022/08/05 12:48:15;;;;;;;;;;;;;;;30.91;30.94;95094.03;5094003;28;1045;-50
2022/08/05 12:50:41;;;;;;;;;;;;;;;30.97;29.93;95096.75;5093528;28;1901;-49
2022/08/05 12:53:07;;;;;;;;;;;;;;;31.08;30.34;95095.53;5093672;28;1967;-50
2022/08/05 12:55:33;;;;;;;;;;;;;;;31.19;30.27;95097.09;5093532;28;1957;-50
2022/08/05 13:01:23;;;;;;;;;;;;;;;31.09;31.56;95080.59;4388757;28;2104;-50
2022/08/05 13:03:49;;;;;;;;;;;;;;;31.08;30.81;95079.78;5093654;28;1008;-50
2022/08/05 13:06:15;;;;;;;;;;;;;;;31.12;31.16;95082.78;5093231;28;1020;-49
2022/08/05 13:08:42;;;;;;;;;;;;;;;31.13;31.33;95076.16;5093742;28;952;-50
2022/08/05 13:11:07;;;;;;;;;;;;;;;31.07;30.37;95071.81;5093340;28;1906;-49